createdAt,value
2022-08-12T00:00:23.884Z,11.70
2022-08-12T00:02:02.757Z,12.20
2022-08-12T00:02:31.685Z,13.10
2022-08-12T00:03:34.194Z,12.60
2022-08-12T00:04:37.761Z,11.40
2022-08-12T00:06:04.122Z,12.70
2022-08-12T00:06:47.886Z,11.90
2022-08-12T00:07:51.688Z,12.30
2022-08-12T00:08:53.851Z,11.80
2022-08-12T00:09:56.655Z,12.30
2022-08-12T00:10:59.282Z,11.90
2022-08-12T00:12:03.831Z,12.40
2022-08-12T00:13:06.871Z,11.90
2022-08-12T00:14:09.322Z,13.20
2022-08-12T00:15:14.975Z,13.00
2022-08-12T00:16:18.667Z,12.60
2022-08-12T00:17:23.270Z,12.10
2022-08-12T00:18:29.808Z,11.50
2022-08-12T00:19:32.206Z,11.10
2022-08-12T00:20:37.503Z,13.10
2022-08-12T00:21:40.615Z,11.70
2022-08-12T00:22:44.099Z,11.10
2022-08-12T00:23:46.264Z,12.20
2022-08-12T00:24:48.425Z,12.40
2022-08-12T00:26:23.131Z,12.10
2022-08-12T00:26:58.408Z,11.30
2022-08-12T00:28:01.901Z,11.10
2022-08-12T00:29:04.938Z,11.10
2022-08-12T00:30:11.206Z,12.60
2022-08-12T00:31:13.860Z,12.50
2022-08-12T00:32:54.301Z,11.70
2022-08-12T00:33:23.436Z,12.50
2022-08-12T00:34:31.278Z,11.20
2022-08-12T00:35:36.709Z,11.30
2022-08-12T00:36:39.285Z,10.80
2022-08-12T00:37:42.997Z,11.90
2022-08-12T00:38:45.098Z,12.50
2022-08-12T00:39:48.309Z,11.70
2022-08-12T00:40:50.980Z,12.40
2022-08-12T00:41:56.746Z,12.80
2022-08-12T00:42:59.171Z,12.30
2022-08-12T00:44:04.639Z,11.40
2022-08-12T00:45:07.770Z,10.60
2022-08-12T00:46:10.264Z,13.20
2022-08-12T00:47:24.529Z,11.60
2022-08-12T00:48:19.851Z,11.80
2022-08-12T00:49:23.540Z,11.40
2022-08-12T00:50:29.348Z,12.70
2022-08-12T00:51:32.370Z,12.40
2022-08-12T00:52:35.735Z,11.60
2022-08-12T00:53:38.586Z,11.00
2022-08-12T00:54:46.946Z,11.10
2022-08-12T00:55:53.644Z,11.80
2022-08-12T00:56:58.468Z,10.40
2022-08-12T00:58:04.187Z,12.20
2022-08-12T00:59:08.832Z,11.10
2022-08-12T01:00:21.216Z,10.00
2022-08-12T01:01:24.491Z,11.80
2022-08-12T01:02:30.626Z,11.10
2022-08-12T01:03:35.918Z,10.60
2022-08-12T01:04:40.154Z,11.10
2022-08-12T01:05:44.963Z,12.20
2022-08-12T01:06:51.148Z,12.50
2022-08-12T01:07:53.628Z,11.90
2022-08-12T01:08:55.713Z,11.80
2022-08-12T01:09:58.582Z,10.80
2022-08-12T01:11:00.880Z,10.90
2022-08-12T01:12:04.565Z,3.90
2022-08-12T01:13:19.379Z,10.40
2022-08-12T01:14:13.567Z,12.20
2022-08-12T01:15:17.742Z,11.91
2022-08-12T01:16:21.662Z,12.30
2022-08-12T01:17:25.330Z,12.30
2022-08-12T01:18:33.907Z,5.30
2022-08-12T01:19:36.816Z,11.40
2022-08-12T01:20:48.597Z,12.10
2022-08-12T01:22:17.384Z,11.50
2022-08-12T01:23:35.115Z,12.00
2022-08-12T01:24:59.278Z,10.30
2022-08-12T01:26:07.508Z,11.40
2022-08-12T01:27:12.815Z,11.70
2022-08-12T01:28:17.412Z,10.60
2022-08-12T01:29:23.879Z,11.80
2022-08-12T01:30:29.265Z,12.00
2022-08-12T01:31:34.605Z,12.20
2022-08-12T01:32:39.525Z,12.60
2022-08-12T01:34:28.591Z,11.70
2022-08-12T01:35:15.197Z,11.80
2022-08-12T01:36:20.949Z,11.90
2022-08-12T01:37:25.624Z,12.10
2022-08-12T01:38:31.421Z,10.30
2022-08-12T01:40:34.041Z,10.30
2022-08-12T01:41:00.066Z,12.00
2022-08-12T01:42:05.910Z,12.40
2022-08-12T01:43:11.577Z,12.00
2022-08-12T01:44:14.970Z,12.00
2022-08-12T01:45:22.347Z,12.00
2022-08-12T01:46:40.678Z,11.40
2022-08-12T01:47:52.262Z,13.90
2022-08-12T01:49:00.673Z,12.50
2022-08-12T01:50:09.130Z,12.90
2022-08-12T01:52:15.106Z,12.70
2022-08-12T01:52:57.495Z,10.60
2022-08-12T01:54:04.224Z,10.70
2022-08-12T01:55:08.109Z,10.30
2022-08-12T01:56:12.582Z,11.90
2022-08-12T01:57:58.490Z,11.90
2022-08-12T01:58:41.316Z,12.50
2022-08-12T01:59:59.301Z,11.00
2022-08-12T02:01:08.342Z,11.40
2022-08-12T02:02:14.083Z,11.70
2022-08-12T02:03:39.196Z,11.50
2022-08-12T02:05:18.593Z,11.90
2022-08-12T02:06:28.338Z,10.90
2022-08-12T02:07:56.801Z,12.20
2022-08-12T02:09:01.884Z,10.00
2022-08-12T02:11:29.367Z,13.10
2022-08-12T02:12:35.203Z,10.10
2022-08-12T02:13:50.333Z,12.30
2022-08-12T02:14:59.502Z,12.60
2022-08-12T02:16:22.450Z,12.00
2022-08-12T02:17:55.314Z,13.10
2022-08-12T02:18:59.762Z,13.60
2022-08-12T02:20:25.345Z,10.60
2022-08-12T02:21:39.049Z,11.90
2022-08-12T02:22:43.795Z,11.60
2022-08-12T02:23:47.408Z,11.50
2022-08-12T02:24:51.892Z,11.40
2022-08-12T02:25:57.615Z,13.30
2022-08-12T02:27:01.300Z,12.70
2022-08-12T02:28:07.751Z,11.60
2022-08-12T02:29:08.819Z,12.20
2022-08-12T02:30:16.857Z,12.30
2022-08-12T02:31:19.589Z,11.80
2022-08-12T02:32:21.843Z,12.09
2022-08-12T02:33:24.818Z,11.10
2022-08-12T02:34:28.822Z,11.00
2022-08-12T02:35:35.040Z,11.90
2022-08-12T02:36:39.724Z,12.00
2022-08-12T02:37:43.392Z,11.80
2022-08-12T02:38:48.277Z,11.00
2022-08-12T02:39:53.127Z,11.90
2022-08-12T02:40:58.148Z,11.30
2022-08-12T02:42:04.668Z,11.30
2022-08-12T02:43:30.209Z,11.90
2022-08-12T02:44:36.689Z,13.30
2022-08-12T02:45:42.958Z,12.00
2022-08-12T02:46:47.861Z,12.90
2022-08-12T02:47:58.564Z,10.70
2022-08-12T02:49:06.397Z,12.20
2022-08-12T02:50:10.534Z,11.70
2022-08-12T02:51:16.217Z,12.10
2022-08-12T02:52:19.150Z,13.00
2022-08-12T02:53:22.398Z,12.10
2022-08-12T02:54:25.244Z,12.70
2022-08-12T02:55:34.788Z,11.60
2022-08-12T02:56:38.251Z,11.00
2022-08-12T02:57:41.675Z,12.60
2022-08-12T02:58:46.182Z,12.00
2022-08-12T02:59:50.117Z,12.20
2022-08-12T03:00:53.013Z,11.10
2022-08-12T03:01:57.980Z,12.00
2022-08-12T03:03:05.432Z,11.90
2022-08-12T03:04:20.088Z,12.00
2022-08-12T03:05:16.435Z,11.50
2022-08-12T03:06:23.789Z,11.70
2022-08-12T03:07:52.378Z,12.60
2022-08-12T03:08:39.508Z,10.60
2022-08-12T03:11:07.860Z,13.80
2022-08-12T03:12:16.327Z,12.70
2022-08-12T03:13:18.664Z,13.40
2022-08-12T03:14:23.234Z,13.20
2022-08-12T03:15:25.515Z,11.20
2022-08-12T03:16:33.098Z,12.18
2022-08-12T03:17:45.086Z,12.00
2022-08-12T03:18:49.290Z,13.80
2022-08-12T03:20:10.296Z,14.50
2022-08-12T03:20:57.699Z,12.30
2022-08-12T03:22:09.179Z,14.30
2022-08-12T03:23:28.627Z,12.70
2022-08-12T03:24:19.607Z,13.40
2022-08-12T03:25:24.537Z,12.90
2022-08-12T03:26:29.474Z,13.60
2022-08-12T03:27:31.745Z,12.80
2022-08-12T03:28:35.327Z,12.10
2022-08-12T03:29:49.864Z,13.90
2022-08-12T03:30:44.559Z,11.90
2022-08-12T03:31:48.047Z,12.10
2022-08-12T03:32:52.091Z,12.30
2022-08-12T03:34:03.118Z,12.50
2022-08-12T03:35:07.604Z,14.50
2022-08-12T03:36:11.415Z,12.30
2022-08-12T03:37:15.424Z,14.10
2022-08-12T03:38:22.297Z,13.80
2022-08-12T03:39:36.209Z,13.70
2022-08-12T03:40:39.018Z,13.70
2022-08-12T03:42:00.750Z,12.70
2022-08-12T03:43:05.947Z,13.20
2022-08-12T03:44:25.656Z,14.20
2022-08-12T03:45:31.563Z,13.70
2022-08-12T03:46:38.591Z,13.90
2022-08-12T03:48:13.272Z,13.90
2022-08-12T03:49:16.632Z,13.60
2022-08-12T03:50:21.026Z,14.00
2022-08-12T03:51:23.871Z,13.09
2022-08-12T03:52:26.077Z,12.18
2022-08-12T03:53:30.281Z,14.80
2022-08-12T03:54:32.755Z,14.40
2022-08-12T03:55:36.214Z,13.10
2022-08-12T03:56:40.235Z,15.40
2022-08-12T03:57:42.801Z,13.20
2022-08-12T03:58:47.309Z,13.60
2022-08-12T03:59:49.773Z,11.20
2022-08-12T04:00:53.032Z,13.80
2022-08-12T04:01:56.180Z,13.80
2022-08-12T04:02:58.394Z,14.10
2022-08-12T04:04:01.701Z,13.70
2022-08-12T04:05:05.321Z,14.60
2022-08-12T04:06:10.505Z,12.00
2022-08-12T04:07:14.393Z,13.20
2022-08-12T04:08:18.647Z,13.20
2022-08-12T04:09:21.952Z,13.50
2022-08-12T04:10:30.098Z,13.00
2022-08-12T04:11:35.925Z,13.50
2022-08-12T04:12:40.130Z,14.50
2022-08-12T04:13:42.401Z,13.30
2022-08-12T04:14:44.550Z,14.30
2022-08-12T04:15:47.439Z,13.00
2022-08-12T04:16:50.509Z,14.30
2022-08-12T04:18:07.478Z,13.20
2022-08-12T04:18:58.099Z,19.60
2022-08-12T04:20:00.282Z,14.64
2022-08-12T04:21:03.853Z,15.40
2022-08-12T04:22:06.373Z,16.40
2022-08-12T04:23:16.836Z,13.80
2022-08-12T04:24:19.740Z,17.00
2022-08-12T04:25:24.351Z,14.90
2022-08-12T04:26:28.558Z,14.40
2022-08-12T04:27:32.080Z,14.20
2022-08-12T04:28:34.916Z,14.00
2022-08-12T04:30:21.193Z,16.90
2022-08-12T04:30:43.547Z,15.60
2022-08-12T04:31:45.698Z,16.40
2022-08-12T04:32:51.879Z,14.70
2022-08-12T04:33:54.189Z,12.90
2022-08-12T04:34:56.401Z,15.70
2022-08-12T04:35:58.894Z,16.00
2022-08-12T04:37:01.361Z,14.91
2022-08-12T04:38:04.170Z,14.50
2022-08-12T04:39:09.187Z,15.18
2022-08-12T04:40:13.705Z,13.70
2022-08-12T04:41:15.919Z,15.91
2022-08-12T04:42:18.227Z,12.80
2022-08-12T04:43:59.618Z,13.80
2022-08-12T04:44:24.890Z,14.30
2022-08-12T04:45:27.773Z,14.82
2022-08-12T04:46:34.524Z,14.00
2022-08-12T04:47:38.014Z,14.70
2022-08-12T04:48:40.638Z,14.70
2022-08-12T04:49:45.961Z,14.40
2022-08-12T04:50:48.266Z,14.40
2022-08-12T04:51:55.214Z,15.90
2022-08-12T04:52:56.213Z,15.30
2022-08-12T04:53:58.328Z,16.50
2022-08-12T04:55:01.109Z,15.90
2022-08-12T04:56:04.143Z,15.30
2022-08-12T04:57:06.858Z,15.30
2022-08-12T04:58:10.647Z,17.00
2022-08-12T04:59:14.697Z,14.40
2022-08-12T05:00:18.749Z,14.10
2022-08-12T05:01:20.957Z,12.09
2022-08-12T05:02:23.284Z,15.70
2022-08-12T05:03:26.844Z,16.70
2022-08-12T05:04:29.737Z,15.10
2022-08-12T05:05:36.299Z,14.80
2022-08-12T05:06:38.355Z,14.50
2022-08-12T05:07:46.519Z,16.10
2022-08-12T05:08:44.462Z,15.40
2022-08-12T05:10:00.161Z,11.70
2022-08-12T05:10:51.073Z,17.70
2022-08-12T05:11:54.232Z,16.90
2022-08-12T05:12:59.493Z,16.10
2022-08-12T05:14:01.743Z,15.60
2022-08-12T05:15:19.464Z,15.60
2022-08-12T05:16:10.545Z,15.20
2022-08-12T05:17:14.584Z,17.50
2022-08-12T05:18:19.444Z,16.20
2022-08-12T05:19:22.722Z,14.90
2022-08-12T05:20:26.674Z,11.90
2022-08-12T05:21:28.951Z,14.50
2022-08-12T05:22:31.064Z,15.40
2022-08-12T05:23:39.594Z,14.20
2022-08-12T05:24:41.715Z,14.40
2022-08-12T05:25:45.917Z,16.20
2022-08-12T05:26:48.628Z,14.90
2022-08-12T05:27:58.413Z,15.90
2022-08-12T05:28:57.552Z,16.60
2022-08-12T05:30:06.335Z,17.10
2022-08-12T05:31:04.835Z,17.00
2022-08-12T05:32:08.631Z,16.30
2022-08-12T05:33:12.487Z,17.50
2022-08-12T05:34:14.994Z,15.40
2022-08-12T05:35:17.150Z,17.70
2022-08-12T05:36:21.360Z,17.20
2022-08-12T05:37:23.509Z,18.10
2022-08-12T05:38:25.564Z,15.30
2022-08-12T05:39:27.679Z,16.70
2022-08-12T05:40:30.397Z,17.30
2022-08-12T05:41:34.196Z,16.90
2022-08-12T05:42:36.591Z,17.90
2022-08-12T05:43:38.689Z,13.80
2022-08-12T05:44:41.069Z,16.20
2022-08-12T05:45:45.020Z,16.00
2022-08-12T05:46:48.356Z,15.55
2022-08-12T05:47:53.786Z,15.90
2022-08-12T05:48:56.630Z,15.70
2022-08-12T05:49:59.456Z,17.20
2022-08-12T05:51:02.004Z,16.70
2022-08-12T05:52:04.656Z,16.30
2022-08-12T05:53:06.820Z,15.70
2022-08-12T05:54:10.513Z,16.70
2022-08-12T05:55:12.741Z,18.60
2022-08-12T05:56:34.431Z,17.20
2022-08-12T05:57:37.259Z,16.30
2022-08-12T05:58:39.418Z,15.18
2022-08-12T05:59:41.491Z,17.50
2022-08-12T06:00:44.049Z,17.10
2022-08-12T06:02:09.175Z,18.30
2022-08-12T06:02:52.688Z,17.20
2022-08-12T06:03:55.658Z,15.40
2022-08-12T06:04:57.796Z,15.50
2022-08-12T06:06:00.916Z,15.30
2022-08-12T06:08:00.207Z,12.20
2022-08-12T06:08:07.689Z,14.60
2022-08-12T06:09:09.876Z,16.00
2022-08-12T06:10:13.196Z,14.40
2022-08-12T06:11:16.159Z,17.10
2022-08-12T06:12:18.417Z,14.80
2022-08-12T06:13:25.753Z,16.20
2022-08-12T06:14:24.985Z,16.60
2022-08-12T06:15:29.824Z,16.80
2022-08-12T06:16:32.170Z,16.20
2022-08-12T06:17:35.366Z,16.40
2022-08-12T06:18:37.714Z,17.50
2022-08-12T06:20:22.849Z,16.80
2022-08-12T06:20:49.848Z,16.30
2022-08-12T06:21:53.878Z,15.50
2022-08-12T06:22:56.457Z,14.80
2022-08-12T06:23:59.788Z,14.91
2022-08-12T06:25:02.748Z,15.20
2022-08-12T06:26:06.442Z,16.00
2022-08-12T06:27:09.215Z,15.80
2022-08-12T06:28:16.062Z,16.45
2022-08-12T06:30:07.041Z,16.20
2022-08-12T06:30:36.936Z,14.20
2022-08-12T06:31:30.335Z,16.60
2022-08-12T06:32:32.417Z,15.30
2022-08-12T06:33:55.894Z,14.30
2022-08-12T06:35:24.895Z,15.30
2022-08-12T06:35:48.506Z,15.30
2022-08-12T06:36:50.844Z,15.40
2022-08-12T06:37:57.094Z,17.20
2022-08-12T06:38:58.438Z,15.20
2022-08-12T06:40:03.892Z,15.50
2022-08-12T06:41:05.457Z,16.20
2022-08-12T06:42:42.053Z,15.60
2022-08-12T06:43:11.668Z,16.70
2022-08-12T06:44:14.794Z,15.30
2022-08-12T06:45:18.644Z,14.82
2022-08-12T06:46:27.501Z,15.10
2022-08-12T06:47:30.748Z,14.00
2022-08-12T06:48:33.823Z,15.20
2022-08-12T06:49:35.955Z,15.80
2022-08-12T06:50:40.213Z,14.56
2022-08-12T06:51:56.146Z,15.80
2022-08-12T06:52:47.484Z,15.50
2022-08-12T06:53:49.791Z,16.30
2022-08-12T06:54:51.888Z,15.67
2022-08-12T06:55:57.549Z,16.67
2022-08-12T06:57:14.340Z,16.40
2022-08-12T06:58:10.400Z,15.50
2022-08-12T06:59:10.149Z,17.80
2022-08-12T07:00:14.550Z,15.40
2022-08-12T07:01:16.877Z,17.30
2022-08-12T07:02:20.093Z,15.00
2022-08-12T07:03:23.656Z,17.80
2022-08-12T07:04:36.343Z,16.30
2022-08-12T07:05:30.661Z,16.70
2022-08-12T07:06:32.978Z,17.30
2022-08-12T07:07:34.958Z,15.30
2022-08-12T07:08:37.958Z,17.22
2022-08-12T07:10:01.226Z,16.10
2022-08-12T07:10:48.620Z,17.60
2022-08-12T07:11:51.128Z,15.40
2022-08-12T07:12:53.831Z,18.22
2022-08-12T07:14:11.899Z,17.30
2022-08-12T07:15:00.727Z,18.20
2022-08-12T07:16:06.776Z,17.10
2022-08-12T07:17:09.481Z,17.00
2022-08-12T07:18:12.424Z,14.11
2022-08-12T07:19:14.678Z,15.00
2022-08-12T07:20:50.318Z,16.20
2022-08-12T07:21:25.053Z,18.40
2022-08-12T07:22:29.654Z,16.10
2022-08-12T07:23:33.461Z,13.60
2022-08-12T07:24:37.967Z,16.60
2022-08-12T07:25:41.861Z,17.50
2022-08-12T07:26:44.627Z,17.50
2022-08-12T07:27:46.908Z,17.33
2022-08-12T07:28:49.464Z,17.67
2022-08-12T07:30:03.636Z,17.33
2022-08-12T07:30:56.838Z,17.80
2022-08-12T07:31:58.999Z,16.30
2022-08-12T07:33:01.949Z,17.00
2022-08-12T07:34:05.566Z,16.70
2022-08-12T07:35:09.364Z,17.00
2022-08-12T07:36:13.657Z,15.30
2022-08-12T07:37:15.955Z,16.30
2022-08-12T07:38:20.577Z,16.44
2022-08-12T07:39:26.034Z,17.50
2022-08-12T07:40:30.496Z,15.40
2022-08-12T07:41:33.490Z,17.22
2022-08-12T07:42:36.782Z,14.64
2022-08-12T07:43:45.444Z,15.80
2022-08-12T07:44:51.811Z,16.10
2022-08-12T07:45:56.169Z,15.40
2022-08-12T07:46:58.796Z,17.40
2022-08-12T07:48:01.227Z,15.78
2022-08-12T07:49:09.873Z,14.67
2022-08-12T07:50:14.581Z,15.00
2022-08-12T07:51:25.223Z,15.10
2022-08-12T07:52:23.678Z,16.30
2022-08-12T07:53:25.663Z,17.33
2022-08-12T07:54:27.677Z,15.22
2022-08-12T07:55:29.772Z,16.44
2022-08-12T07:56:32.000Z,15.78
2022-08-12T07:57:35.419Z,15.00
2022-08-12T07:58:41.989Z,17.30
2022-08-12T07:59:43.637Z,16.60
2022-08-12T08:00:46.700Z,15.67
2022-08-12T08:01:49.249Z,15.10
2022-08-12T08:02:52.489Z,16.20
2022-08-12T08:03:55.738Z,16.22
2022-08-12T08:04:57.861Z,12.90
2022-08-12T08:06:00.055Z,15.89
2022-08-12T08:07:02.167Z,15.78
2022-08-12T08:08:18.726Z,18.67
2022-08-12T08:09:23.056Z,13.60
2022-08-12T08:10:25.497Z,16.00
2022-08-12T08:11:28.081Z,14.78
2022-08-12T08:12:31.241Z,15.89
2022-08-12T08:13:33.978Z,14.90
2022-08-12T08:14:36.864Z,14.89
2022-08-12T08:16:01.715Z,17.90
2022-08-12T08:16:44.968Z,17.20
2022-08-12T08:17:59.897Z,16.10
2022-08-12T08:19:03.020Z,16.60
2022-08-12T08:20:08.085Z,17.20
2022-08-12T08:21:10.548Z,13.70
2022-08-12T08:22:12.651Z,17.00
2022-08-12T08:23:17.359Z,15.78
2022-08-12T08:24:19.953Z,15.30
2022-08-12T08:25:36.165Z,17.00
2022-08-12T08:26:26.905Z,13.60
2022-08-12T08:27:32.676Z,15.11
2022-08-12T08:28:35.321Z,16.20
2022-08-12T08:29:38.818Z,15.78
2022-08-12T08:30:43.360Z,15.55
2022-08-12T08:31:47.845Z,16.90
2022-08-12T08:32:50.194Z,16.20
2022-08-12T08:34:05.329Z,16.10
2022-08-12T08:34:59.101Z,16.80
2022-08-12T08:36:02.036Z,17.78
2022-08-12T08:37:07.797Z,16.90
2022-08-12T08:38:17.627Z,13.40
2022-08-12T08:39:19.784Z,13.10
2022-08-12T08:40:22.828Z,16.90
2022-08-12T08:42:15.371Z,16.10
2022-08-12T08:42:32.461Z,17.20
2022-08-12T08:43:44.272Z,13.10
2022-08-12T08:44:39.143Z,17.90
2022-08-12T08:45:41.596Z,17.60
2022-08-12T08:46:44.057Z,15.60
2022-08-12T08:47:47.542Z,17.40
2022-08-12T08:48:56.417Z,18.60
2022-08-12T08:49:58.056Z,19.10
2022-08-12T08:51:04.373Z,17.30
2022-08-12T08:52:08.247Z,15.80
2022-08-12T08:53:10.667Z,17.00
2022-08-12T08:54:13.423Z,18.90
2022-08-12T08:55:18.735Z,14.55
2022-08-12T08:56:20.568Z,15.10
2022-08-12T08:57:22.686Z,17.30
2022-08-12T08:58:26.715Z,16.80
2022-08-12T08:59:29.015Z,17.40
2022-08-12T09:00:31.952Z,18.00
2022-08-12T09:01:38.067Z,18.10
2022-08-12T09:02:38.259Z,17.70
2022-08-12T09:05:07.832Z,17.60
2022-08-12T09:05:11.867Z,17.20
2022-08-12T09:09:13.478Z,18.70
2022-08-12T09:10:32.441Z,17.70
2022-08-12T09:12:06.804Z,15.50
2022-08-12T09:12:27.589Z,18.20
2022-08-12T09:13:29.388Z,14.20
2022-08-12T09:14:32.359Z,19.30
2022-08-12T09:15:36.252Z,17.82
2022-08-12T09:16:42.661Z,18.00
2022-08-12T09:18:55.965Z,14.30
2022-08-12T09:19:58.453Z,17.70
2022-08-12T09:21:02.720Z,17.30
2022-08-12T09:22:05.307Z,18.70
2022-08-12T09:23:59.789Z,18.50
2022-08-12T09:24:16.330Z,17.50
2022-08-12T09:25:25.264Z,15.90
2022-08-12T09:26:29.478Z,16.30
2022-08-12T09:28:04.342Z,17.00
2022-08-12T09:28:37.242Z,19.80
2022-08-12T09:30:11.094Z,18.90
2022-08-12T09:30:45.028Z,17.60
2022-08-12T09:32:03.658Z,17.80
2022-08-12T09:33:04.440Z,17.40
2022-08-12T09:34:25.965Z,18.30
2022-08-12T09:35:01.489Z,17.70
2022-08-12T09:36:05.632Z,18.40
2022-08-12T09:37:18.629Z,18.90
2022-08-12T09:38:25.547Z,18.70
2022-08-12T09:40:03.159Z,18.90
2022-08-12T09:41:03.860Z,18.60
2022-08-12T09:42:09.513Z,19.20
2022-08-12T09:42:56.820Z,17.00
2022-08-12T09:43:53.807Z,17.50
2022-08-12T09:45:17.647Z,17.90
2022-08-12T09:46:06.169Z,17.50
2022-08-12T09:47:03.237Z,18.50
2022-08-12T09:48:07.628Z,19.50
2022-08-12T09:49:13.427Z,14.10
2022-08-12T09:50:20.348Z,14.70
2022-08-12T09:51:22.582Z,17.30
2022-08-12T09:52:24.330Z,18.10
2022-08-12T09:53:35.999Z,17.10
2022-08-12T09:54:35.430Z,19.20
2022-08-12T09:56:05.496Z,18.00
2022-08-12T09:57:00.036Z,17.40
2022-08-12T09:58:45.413Z,16.70
2022-08-12T09:59:00.344Z,16.80
2022-08-12T10:00:13.281Z,17.80
2022-08-12T10:01:06.292Z,19.00
2022-08-12T10:02:45.267Z,18.10
2022-08-12T10:03:32.619Z,18.10
2022-08-12T10:04:20.486Z,18.00
2022-08-12T10:05:23.086Z,13.80
2022-08-12T10:06:31.799Z,16.30
2022-08-12T10:07:40.034Z,16.00
2022-08-12T10:08:39.790Z,17.80
2022-08-12T10:09:57.348Z,18.30
2022-08-12T10:10:50.757Z,19.40
2022-08-12T10:12:07.789Z,17.10
2022-08-12T10:13:08.320Z,20.10
2022-08-12T10:14:03.807Z,16.50
2022-08-12T10:15:08.150Z,18.30
2022-08-12T10:16:25.382Z,16.90
2022-08-12T10:17:30.646Z,19.30
2022-08-12T10:18:35.761Z,18.00
2022-08-12T10:19:38.247Z,17.80
2022-08-12T10:20:40.815Z,16.40
2022-08-12T10:21:43.075Z,16.90
2022-08-12T10:22:57.577Z,16.20
2022-08-12T10:23:59.876Z,16.70
2022-08-12T10:25:17.394Z,17.30
2022-08-12T10:26:38.035Z,16.60
2022-08-12T10:27:17.228Z,18.30
2022-08-12T10:28:25.181Z,17.80
2022-08-12T10:30:03.331Z,19.00
2022-08-12T10:30:40.394Z,17.40
2022-08-12T10:32:19.722Z,17.30
2022-08-12T10:32:45.079Z,17.00
2022-08-12T10:33:55.051Z,17.20
2022-08-12T10:34:53.826Z,17.50
2022-08-12T10:35:52.560Z,18.40
2022-08-12T10:37:00.469Z,16.36
2022-08-12T10:38:35.854Z,17.60
2022-08-12T10:39:44.267Z,16.60
2022-08-12T10:40:20.521Z,16.50
2022-08-12T10:41:21.539Z,18.90
2022-08-12T10:42:29.401Z,17.20
2022-08-12T10:43:30.101Z,17.30
2022-08-12T10:44:35.370Z,17.60
2022-08-12T10:47:00.185Z,18.90
2022-08-12T10:48:21.609Z,18.60
2022-08-12T10:50:04.662Z,16.50
2022-08-12T10:50:23.780Z,16.30
2022-08-12T10:52:03.553Z,17.80
2022-08-12T10:52:34.362Z,16.50
2022-08-12T10:53:44.182Z,17.60
2022-08-12T10:54:39.280Z,17.00
2022-08-12T10:55:43.790Z,17.10
2022-08-12T10:56:46.573Z,17.36
2022-08-12T10:58:14.538Z,18.20
2022-08-12T10:58:55.626Z,17.20
2022-08-12T11:00:30.604Z,18.70
2022-08-12T11:01:25.859Z,19.10
2022-08-12T11:04:22.639Z,17.00
2022-08-12T11:04:26.118Z,18.50
2022-08-12T11:04:34.280Z,17.80
2022-08-12T11:07:06.815Z,17.20
2022-08-12T11:07:09.187Z,16.50
2022-08-12T11:08:37.663Z,17.80
2022-08-12T11:08:43.494Z,13.30
2022-08-12T11:09:56.030Z,17.50
2022-08-12T11:10:46.768Z,16.40
2022-08-12T11:12:35.216Z,17.00
2022-08-12T11:12:59.703Z,17.70
2022-08-12T11:14:00.019Z,16.90
2022-08-12T11:15:19.480Z,17.00
2022-08-12T11:16:21.865Z,19.10
2022-08-12T11:17:43.095Z,19.50
2022-08-12T11:18:19.084Z,18.50
2022-08-12T11:19:22.291Z,17.70
2022-08-12T11:20:30.823Z,19.30
2022-08-12T11:21:57.106Z,17.60
2022-08-12T11:22:33.755Z,19.50
2022-08-12T11:23:37.057Z,18.30
2022-08-12T11:24:39.897Z,18.80
2022-08-12T11:25:57.760Z,18.70
2022-08-12T11:26:48.914Z,18.50
2022-08-12T11:27:51.794Z,13.36
2022-08-12T11:28:59.195Z,16.40
2022-08-12T11:30:01.668Z,17.40
2022-08-12T11:31:05.538Z,17.90
2022-08-12T11:32:07.825Z,16.80
2022-08-12T11:33:24.307Z,19.00
2022-08-12T11:34:53.757Z,16.80
2022-08-12T11:35:21.123Z,18.50
2022-08-12T11:36:24.075Z,17.82
2022-08-12T11:37:28.377Z,18.10
2022-08-12T11:38:31.048Z,17.80
2022-08-12T11:40:42.644Z,19.10
2022-08-12T11:41:42.952Z,16.30
2022-08-12T11:42:46.267Z,18.30
2022-08-12T11:43:50.558Z,19.10
2022-08-12T11:44:53.688Z,17.50
2022-08-12T11:45:56.778Z,18.60
2022-08-12T11:46:59.322Z,17.80
2022-08-12T11:48:01.816Z,18.20
2022-08-12T11:49:05.330Z,17.40
2022-08-12T11:50:11.817Z,18.60
2022-08-12T11:51:13.425Z,16.60
2022-08-12T11:52:17.461Z,18.00
2022-08-12T11:53:59.287Z,18.00
2022-08-12T11:54:24.321Z,18.50
2022-08-12T11:55:27.498Z,17.78
2022-08-12T11:56:38.334Z,16.90
2022-08-12T11:58:15.220Z,17.50
2022-08-12T12:01:58.475Z,18.10
2022-08-12T12:01:58.505Z,15.00
2022-08-12T12:02:06.981Z,16.40
2022-08-12T12:03:09.281Z,16.60
2022-08-12T12:04:11.475Z,17.56
2022-08-12T12:05:14.558Z,18.22
2022-08-12T12:06:19.055Z,16.10
2022-08-12T12:07:22.151Z,17.00
2022-08-12T12:08:37.500Z,17.80
2022-08-12T12:09:30.973Z,14.40
2022-08-12T12:10:35.754Z,16.70
2022-08-12T12:11:48.885Z,18.78
2022-08-12T12:12:49.788Z,8.90
2022-08-12T12:14:06.369Z,18.20
2022-08-12T12:14:54.796Z,17.80
2022-08-12T12:15:56.199Z,16.00
2022-08-12T12:17:00.407Z,17.70
2022-08-12T12:18:02.968Z,16.30
2022-08-12T12:19:05.131Z,17.90
2022-08-12T12:20:11.399Z,16.82
2022-08-12T12:21:14.465Z,16.90
2022-08-12T12:22:23.714Z,17.36
2022-08-12T12:23:29.176Z,16.80
2022-08-12T12:24:26.315Z,18.00
2022-08-12T12:25:59.396Z,19.50
2022-08-12T12:26:36.961Z,18.00
2022-08-12T12:28:05.711Z,19.20
2022-08-12T12:28:55.126Z,13.90
2022-08-12T12:30:19.392Z,18.91
2022-08-12T12:31:04.041Z,17.40
2022-08-12T12:32:10.321Z,17.30
2022-08-12T12:33:18.129Z,18.40
2022-08-12T12:34:30.345Z,16.90
2022-08-12T12:36:06.201Z,17.10
2022-08-12T12:36:30.111Z,17.70
2022-08-12T12:38:05.713Z,17.80
2022-08-12T12:38:35.716Z,18.80
2022-08-12T12:39:55.225Z,16.10
2022-08-12T12:40:45.427Z,17.80
2022-08-12T12:42:43.023Z,17.60
2022-08-12T12:42:56.750Z,15.70
2022-08-12T12:44:04.103Z,14.40
2022-08-12T12:45:02.798Z,16.80
2022-08-12T12:46:08.775Z,17.40
2022-08-12T12:47:28.878Z,16.60
2022-08-12T12:48:18.601Z,15.90
2022-08-12T12:49:26.256Z,16.60
2022-08-12T12:50:34.799Z,15.80
2022-08-12T12:52:11.203Z,16.50
2022-08-12T12:52:42.746Z,16.00
2022-08-12T12:54:08.035Z,18.00
2022-08-12T12:54:52.775Z,16.20
2022-08-12T12:55:55.648Z,16.20
2022-08-12T12:56:58.751Z,18.20
2022-08-12T12:58:01.937Z,14.60
2022-08-12T12:59:04.281Z,15.55
2022-08-12T13:00:08.494Z,13.00
2022-08-12T13:01:25.249Z,14.60
2022-08-12T13:02:15.473Z,16.80
2022-08-12T13:03:19.520Z,16.40
2022-08-12T13:04:23.568Z,16.20
2022-08-12T13:05:42.124Z,16.40
2022-08-12T13:06:35.576Z,16.70
2022-08-12T13:07:54.171Z,0.90
2022-08-12T13:08:43.884Z,17.70
2022-08-12T13:09:48.089Z,13.00
2022-08-12T13:10:53.705Z,16.36
2022-08-12T13:11:57.318Z,12.60
2022-08-12T13:13:01.825Z,15.40
2022-08-12T13:14:07.501Z,15.20
2022-08-12T13:15:12.460Z,16.50
2022-08-12T13:16:18.704Z,15.10
2022-08-12T13:17:22.167Z,16.20
2022-08-12T13:18:28.627Z,16.20
2022-08-12T13:19:37.815Z,14.70
2022-08-12T13:20:37.859Z,16.80
2022-08-12T13:21:42.993Z,16.60
2022-08-12T13:22:45.607Z,12.10
2022-08-12T13:23:50.536Z,16.60
2022-08-12T13:24:55.995Z,17.50
2022-08-12T13:25:58.541Z,15.20
2022-08-12T13:27:01.655Z,17.10
2022-08-12T13:28:05.406Z,16.50
2022-08-12T13:29:11.387Z,17.10
2022-08-12T13:30:15.790Z,16.60
2022-08-12T13:31:20.947Z,13.70
2022-08-12T13:32:31.439Z,17.90
2022-08-12T13:34:29.570Z,17.40
2022-08-12T13:34:35.628Z,16.60
2022-08-12T13:36:04.907Z,14.40
2022-08-12T13:36:42.534Z,17.40
2022-08-12T13:37:54.484Z,16.33
2022-08-12T13:38:56.170Z,18.20
2022-08-12T13:39:58.356Z,17.20
2022-08-12T13:41:02.227Z,18.20
2022-08-12T13:42:05.218Z,15.50
2022-08-12T13:43:09.519Z,14.90
2022-08-12T13:44:14.148Z,15.70
2022-08-12T13:45:16.593Z,15.09
2022-08-12T13:46:20.299Z,17.20
2022-08-12T13:47:23.187Z,16.27
2022-08-12T13:48:28.939Z,17.00
2022-08-12T13:49:54.147Z,17.50
2022-08-12T13:50:40.528Z,16.20
2022-08-12T13:51:42.704Z,16.90
2022-08-12T13:52:46.577Z,16.20
2022-08-12T13:53:57.591Z,17.27
2022-08-12T13:54:56.639Z,19.20
2022-08-12T13:55:59.585Z,17.30
2022-08-12T13:57:03.775Z,17.80
2022-08-12T13:58:12.579Z,16.00
2022-08-12T13:59:11.863Z,17.80
2022-08-12T14:00:15.690Z,18.50
2022-08-12T14:01:20.824Z,17.50
2022-08-12T14:02:23.454Z,17.50
2022-08-12T14:03:28.387Z,15.30
2022-08-12T14:04:30.796Z,14.50
2022-08-12T14:05:39.052Z,16.70
2022-08-12T14:06:37.623Z,19.00